KCRS/CRS METAR and TAF weather

Enter ICAO airport designator
Station Type Date Time Source
KCRS METAR 2019/06/24 22:53 UTC NOAA

KCRS 242253Z AUTO 15007KT 10SM CLR 26/21 A2992 RMK AO2 SLP128 T02560211


Station Type Date Time Source
KCRS Decoded METAR 2019/06/24 22:53 UTC NOAA

CORSICANA AIRFIELD, TX, United States (KCRS) 32-01N 96-23W 133M
Jun 24, 2019 - 06:53 PM EDT / 2019.06.24 2253 UTC
Wind: from the SSE (150 degrees) at 8 MPH (7 KT):0
Visibility: 10 mile(s):0
Sky conditions: clear
Temperature: 78.1 F (25.6 C)
Dew Point: 70.0 F (21.1 C)
Relative Humidity: 76%
Pressure (altimeter): 29.92 in. Hg (1013 hPa)
ob: KCRS 242253Z AUTO 15007KT 10SM CLR 26/21 A2992 RMK AO2 SLP128 T02560211
cycle: 23

Station Type Date Time Source
KCRS TAF UTC NOAA

Error!

Example: see airport list